Bowling Green, Kentucky
Current Conditions -  °F | °C
As of 8:04 AM on Monday 24 Nov 2014 (Local Time) from KBWG Reporting Station
Light Rain Light Rain  
Wind Chill: 14°   Ceiling: 4000
Heat Index: 14°   Visibility: 9mi
Dew Point: 10°   Wind: 22mph
Humidity: 77%   Direction: 250°WSW
Pressure: 29.57"   Gusts: 32mph
Location:  36.99°N, 86.44°W
Report Text: KBWG 241404Z AUTO 25019G28KT 9SM -RA FEW033 BKN040 OVC060 14/10 A2957 RMK AO2 PK WND 25028/1404 P0000 T01390100
Loading
Personal Weather Stations






























Interactive Weather Map New forecast layout! Learn more

10-Day Weather Forecast

Advertisements
Track Severe Weather on mobile